createdAt,value
2017-06-03T00:07:12.000Z,42.979
2017-06-03T00:17:15.000Z,44.317
2017-06-03T00:27:14.000Z,43.779
2017-06-03T00:37:13.000Z,43.872
2017-06-03T00:47:12.000Z,42.673
2017-06-03T00:57:12.000Z,42.091
2017-06-03T01:07:12.000Z,42.566
2017-06-03T01:17:12.000Z,42.655
2017-06-03T01:27:13.000Z,42.766
2017-06-03T01:37:13.000Z,42.809
2017-06-03T01:47:12.000Z,43.375
2017-06-03T01:57:13.000Z,42.97
2017-06-03T02:07:12.000Z,44.114
2017-06-03T02:17:13.000Z,43.23
2017-06-03T02:27:13.000Z,43.348
2017-06-03T02:37:13.000Z,43.942
2017-06-03T02:47:12.000Z,43.676
2017-06-03T02:57:13.000Z,44.895
2017-06-03T03:07:12.000Z,45.629
2017-06-03T03:17:13.000Z,44.519
2017-06-03T03:27:12.000Z,44.116
2017-06-03T03:37:13.000Z,44.058
2017-06-03T03:47:12.000Z,45.144
2017-06-03T03:57:13.000Z,44.736
2017-06-03T04:07:12.000Z,44.659
2017-06-03T04:17:14.000Z,44.802
2017-06-03T04:27:12.000Z,45.145
2017-06-03T04:37:13.000Z,45.23
2017-06-03T04:47:13.000Z,45.573
2017-06-03T04:57:13.000Z,45.838
2017-06-03T05:07:13.000Z,45.87
2017-06-03T05:17:13.000Z,46.353
2017-06-03T05:27:13.000Z,46.069
2017-06-03T05:37:13.000Z,46.357
2017-06-03T05:47:13.000Z,46.644
2017-06-03T05:57:13.000Z,46.523
2017-06-03T06:07:13.000Z,46.429
2017-06-03T06:17:13.000Z,47.36
2017-06-03T06:27:13.000Z,46.717
2017-06-03T06:37:13.000Z,46.567
2017-06-03T06:47:13.000Z,46.856
2017-06-03T06:57:13.000Z,46.963
2017-06-03T07:07:13.000Z,47.208
2017-06-03T07:17:13.000Z,47.594
2017-06-03T07:27:13.000Z,46.847
2017-06-03T07:37:13.000Z,46.811
2017-06-03T07:47:14.000Z,46.66
2017-06-03T07:57:13.000Z,46.638
2017-06-03T08:07:13.000Z,46.688
2017-06-03T08:17:13.000Z,46.394
2017-06-03T08:27:20.000Z,45.767
2017-06-03T08:37:13.000Z,45.114
2017-06-03T08:47:13.000Z,44.525
2017-06-03T08:57:13.000Z,44.123
2017-06-03T09:07:13.000Z,43.256
2017-06-03T09:17:13.000Z,42.892
2017-06-03T09:27:13.000Z,42.77
2017-06-03T09:37:13.000Z,41.934
2017-06-03T09:47:13.000Z,41.654
2017-06-03T09:57:13.000Z,40.895
2017-06-03T10:07:13.000Z,40.266
2017-06-03T10:17:13.000Z,40.146
2017-06-03T10:27:13.000Z,39.649
2017-06-03T10:37:14.000Z,39.208
2017-06-03T10:47:13.000Z,38.03
2017-06-03T10:57:14.000Z,38.601
2017-06-03T11:07:13.000Z,38.551
2017-06-03T11:17:13.000Z,37.556
2017-06-03T11:27:13.000Z,37.484
2017-06-03T11:37:14.000Z,37.14
2017-06-03T11:47:14.000Z,36.052
2017-06-03T11:57:13.000Z,34.599
2017-06-03T12:07:14.000Z,35.126
2017-06-03T12:17:14.000Z,33.829
2017-06-03T12:37:14.000Z,36.47
2017-06-03T12:47:15.000Z,37.731
2017-06-03T12:57:14.000Z,38.812
2017-06-03T13:07:14.000Z,35.905
2017-06-03T13:17:14.000Z,34.795
2017-06-03T13:27:15.000Z,35.996
2017-06-03T13:37:14.000Z,35.635
2017-06-03T13:47:14.000Z,35.787
2017-06-03T13:57:14.000Z,35.693
2017-06-03T14:07:17.000Z,34.178
2017-06-03T14:17:14.000Z,33.621
2017-06-03T14:27:14.000Z,34.033
2017-06-03T14:37:14.000Z,34.265
2017-06-03T14:47:14.000Z,33.28
2017-06-03T14:57:15.000Z,33.603
2017-06-03T15:07:14.000Z,34.238
2017-06-03T15:17:14.000Z,34.813
2017-06-03T15:27:14.000Z,34.749
2017-06-03T15:37:14.000Z,34.634
2017-06-03T15:47:14.000Z,34.845
2017-06-03T15:57:14.000Z,35.254
2017-06-03T16:07:14.000Z,35.622
2017-06-03T16:17:14.000Z,35.786
2017-06-03T16:27:17.000Z,35.733
2017-06-03T16:37:14.000Z,35.569
2017-06-03T16:47:14.000Z,34.937
2017-06-03T16:57:14.000Z,35.391
2017-06-03T17:07:17.000Z,35.381
2017-06-03T17:17:14.000Z,35.77
2017-06-03T17:27:14.000Z,35.553
2017-06-03T17:37:15.000Z,36.477
2017-06-03T17:47:14.000Z,36.402
2017-06-03T17:57:17.000Z,37.073
2017-06-03T18:07:14.000Z,36.815
2017-06-03T18:17:14.000Z,37.082
2017-06-03T18:27:16.000Z,37.251
2017-06-03T18:37:15.000Z,37.54
2017-06-03T18:47:15.000Z,37.893
2017-06-03T18:57:14.000Z,37.997
2017-06-03T19:07:18.000Z,39.217
2017-06-03T19:17:15.000Z,39.557
2017-06-03T19:27:14.000Z,40.088
2017-06-03T19:37:15.000Z,40.953
2017-06-03T19:47:14.000Z,41.931
2017-06-03T19:57:15.000Z,41.878
2017-06-03T20:07:14.000Z,40.883
2017-06-03T20:17:19.000Z,40.34
2017-06-03T20:27:16.000Z,40.332
2017-06-03T20:37:16.000Z,40.223
2017-06-03T20:47:15.000Z,40.323
2017-06-03T20:57:15.000Z,40.718
2017-06-03T21:07:15.000Z,40.621
2017-06-03T21:17:16.000Z,41.092
2017-06-03T21:27:15.000Z,40.844
2017-06-03T21:37:15.000Z,40.784
2017-06-03T21:47:16.000Z,40.738
2017-06-03T21:57:15.000Z,40.798
2017-06-03T22:07:17.000Z,40.762
2017-06-03T22:17:16.000Z,40.813
2017-06-03T22:27:15.000Z,40.863
2017-06-03T22:37:15.000Z,40.86
2017-06-03T22:47:15.000Z,40.922
2017-06-03T22:57:15.000Z,41.006
2017-06-03T23:07:15.000Z,40.896
2017-06-03T23:17:15.000Z,41.001
2017-06-03T23:27:15.000Z,41
2017-06-03T23:37:15.000Z,40.974
2017-06-03T23:47:16.000Z,41.123
2017-06-03T23:57:15.000Z,41.228
